createdAt,value
2019-04-25T09:56:25.462Z,18976.00
2019-04-25T09:57:25.475Z,22304.00
2019-04-25T09:58:26.778Z,32032.00
2019-04-25T09:59:29.866Z,30944.00
2019-04-25T10:00:28.184Z,27616.00
2019-04-25T10:01:27.388Z,21376.00
2019-04-25T10:02:27.501Z,24512.00
2019-04-25T10:03:28.602Z,20128.00
2019-04-25T10:04:27.958Z,25088.00
2019-04-25T10:05:28.081Z,24544.00
2019-04-25T10:06:28.205Z,22208.00
2019-04-25T10:07:28.435Z,13324.00
2019-04-25T10:08:28.671Z,12120.00
2019-04-25T10:09:28.873Z,17696.00
2019-04-25T10:10:29.005Z,16456.00
2019-04-25T10:11:29.150Z,14756.00
2019-04-25T10:12:29.305Z,17664.00
2019-04-25T10:13:29.432Z,22176.00
2019-04-25T10:14:29.587Z,16404.00
2019-04-25T10:15:29.734Z,15004.00
2019-04-25T10:16:29.887Z,15800.00
2019-04-25T10:17:30.045Z,15276.00
2019-04-25T10:18:30.227Z,14552.00
2019-04-25T10:19:31.082Z,14124.00
2019-04-25T10:20:30.598Z,13632.00
2019-04-25T10:21:30.748Z,15592.00
2019-04-25T10:22:30.888Z,15708.00
2019-04-25T10:23:31.032Z,14832.00
2019-04-25T10:24:32.104Z,14096.00
2019-04-25T10:25:31.599Z,13576.00
2019-04-25T10:26:31.460Z,14804.00
2019-04-25T10:27:31.604Z,15164.00
2019-04-25T10:28:33.629Z,14680.00
2019-04-25T10:29:41.665Z,13576.00
2019-04-25T10:30:34.364Z,14768.00
2019-04-25T10:31:33.771Z,24832.00
2019-04-25T10:32:33.570Z,18912.00
2019-04-25T10:33:33.738Z,23296.00
2019-04-25T10:34:33.589Z,19584.00
2019-04-25T10:35:46.266Z,18176.00
2019-04-25T10:36:35.245Z,14912.00
2019-04-25T10:37:33.636Z,15240.00
2019-04-25T10:38:35.167Z,14980.00
2019-04-25T10:39:34.863Z,14320.00
2019-04-25T10:40:34.008Z,13164.00
2019-04-25T10:41:35.863Z,13772.00
2019-04-25T10:42:34.378Z,15060.00
2019-04-25T10:43:35.095Z,15540.00
2019-04-25T10:44:34.746Z,15160.00
2019-04-25T10:45:34.873Z,13592.00
2019-04-25T10:46:35.235Z,14104.00
2019-04-25T10:47:35.426Z,14836.00
2019-04-25T10:48:36.450Z,13568.00
2019-04-25T10:49:37.592Z,12960.00
2019-04-25T10:50:35.796Z,13064.00
2019-04-25T10:51:35.957Z,13224.00
2019-04-25T10:52:36.131Z,13300.00
2019-04-25T10:53:36.259Z,12372.00
2019-04-25T10:54:36.385Z,11520.00
2019-04-25T10:55:36.627Z,11280.00
2019-04-25T10:56:39.226Z,10616.00
2019-04-25T10:57:36.905Z,10044.00
2019-04-25T10:58:37.046Z,10120.00
2019-04-25T10:59:37.176Z,10900.00
2019-04-25T11:00:37.313Z,12000.00
2019-04-25T11:01:38.101Z,13384.00
2019-04-25T11:02:37.649Z,14236.00
2019-04-25T11:03:37.817Z,14100.00
2019-04-25T11:04:39.649Z,15048.00
2019-04-25T11:05:38.183Z,14668.00
2019-04-25T11:06:39.109Z,10828.00
2019-04-25T11:07:38.522Z,14540.00
2019-04-25T11:08:40.416Z,14920.00
2019-04-25T11:09:39.604Z,14128.00
2019-04-25T11:10:39.702Z,12436.00
2019-04-25T11:11:40.728Z,10964.00
2019-04-25T11:12:40.001Z,11056.00
2019-04-25T11:13:39.601Z,13512.00
2019-04-25T11:14:40.851Z,13300.00
2019-04-25T11:15:40.612Z,8324.00
2019-04-25T11:16:40.154Z,8504.00
2019-04-25T11:17:42.598Z,8068.00
2019-04-25T11:18:41.820Z,8476.00
2019-04-25T11:19:44.539Z,9208.00
2019-04-25T11:20:41.119Z,10496.00
2019-04-25T11:21:41.297Z,10676.00
2019-04-25T11:22:42.373Z,10532.00
2019-04-25T11:23:41.452Z,11180.00
2019-04-25T11:24:42.371Z,10968.00
2019-04-25T11:25:41.766Z,10988.00
2019-04-25T11:26:44.591Z,10832.00
2019-04-25T11:27:43.884Z,11140.00
2019-04-25T11:28:45.143Z,11620.00
2019-04-25T11:29:44.722Z,11980.00
2019-04-25T11:30:45.316Z,10244.00
2019-04-25T11:31:44.875Z,10436.00
2019-04-25T11:32:45.201Z,11872.00
2019-04-25T11:33:44.637Z,12428.00
2019-04-25T11:34:46.120Z,12204.00
2019-04-25T11:35:44.188Z,11696.00
2019-04-25T11:36:44.015Z,12840.00
2019-04-25T11:37:44.642Z,12956.00
2019-04-25T11:38:44.140Z,12516.00
2019-04-25T11:39:45.050Z,12972.00
2019-04-25T11:40:48.795Z,13452.00
2019-04-25T11:41:46.244Z,14040.00
2019-04-25T11:42:46.235Z,10692.00
2019-04-25T11:43:46.389Z,9220.00
2019-04-25T11:44:46.621Z,9680.00
2019-04-25T11:45:46.087Z,9100.00
2019-04-25T11:46:46.660Z,7804.00
2019-04-25T11:47:47.145Z,6492.00
2019-04-25T11:48:46.621Z,6116.00
2019-04-25T11:49:47.429Z,6008.00
2019-04-25T11:50:50.999Z,5920.00
2019-04-25T11:51:50.249Z,5836.00
2019-04-25T11:52:47.125Z,5748.00
2019-04-25T11:53:48.413Z,5560.00
2019-04-25T11:54:48.074Z,6356.00
2019-04-25T11:55:48.167Z,7612.00
2019-04-25T11:56:49.144Z,6428.00
2019-04-25T11:57:50.077Z,4792.00
2019-04-25T11:58:48.963Z,6596.00
2019-04-25T11:59:49.283Z,7272.00
2019-04-25T12:00:48.932Z,7536.00
2019-04-25T12:01:49.867Z,7264.00
2019-04-25T12:02:48.290Z,6000.00
2019-04-25T12:03:50.134Z,5948.00
2019-04-25T12:04:49.056Z,6992.00
2019-04-25T12:05:49.435Z,8960.00
2019-04-25T12:06:49.634Z,8012.00
2019-04-25T12:07:50.133Z,7248.00
2019-04-25T12:08:49.633Z,7708.00
2019-04-25T12:09:49.975Z,7916.00
2019-04-25T12:10:51.585Z,8476.00
2019-04-25T12:11:49.974Z,8932.00
2019-04-25T12:12:50.093Z,9904.00
2019-04-25T12:13:51.619Z,9712.00
2019-04-25T12:14:51.666Z,8660.00
2019-04-25T12:15:50.625Z,7996.00
2019-04-25T12:16:51.893Z,7868.00
2019-04-25T12:17:54.280Z,8648.00
2019-04-25T12:18:54.901Z,8008.00
2019-04-25T12:19:53.931Z,8000.00
2019-04-25T12:20:52.155Z,8068.00
2019-04-25T12:21:53.555Z,8216.00
2019-04-25T12:23:04.129Z,8180.00
2019-04-25T12:23:54.131Z,7956.00
2019-04-25T12:24:54.697Z,7820.00
2019-04-25T12:25:54.386Z,7764.00
2019-04-25T12:26:54.842Z,7524.00
2019-04-25T12:27:54.713Z,7376.00
2019-04-25T12:28:56.397Z,7768.00
2019-04-25T12:29:54.480Z,8208.00
2019-04-25T12:30:55.358Z,7864.00
2019-04-25T12:31:54.964Z,7616.00
2019-04-25T12:32:55.245Z,8128.00
2019-04-25T12:33:55.234Z,8744.00
2019-04-25T12:34:56.177Z,9344.00
2019-04-25T12:35:55.592Z,9800.00
2019-04-25T12:36:55.688Z,10060.00
2019-04-25T12:37:55.528Z,9828.00
2019-04-25T12:38:56.031Z,9456.00
2019-04-25T12:39:56.146Z,8924.00
2019-04-25T12:40:55.662Z,9704.00
2019-04-25T12:41:56.067Z,10068.00
2019-04-25T12:42:57.643Z,9304.00
2019-04-25T12:43:56.633Z,9656.00
2019-04-25T12:44:56.172Z,9088.00
2019-04-25T12:45:57.154Z,9940.00
2019-04-25T12:46:57.126Z,8212.00
2019-04-25T12:47:59.205Z,7860.00
2019-04-25T12:48:58.173Z,7896.00
2019-04-25T12:49:57.878Z,8456.00
2019-04-25T12:50:57.667Z,8516.00
2019-04-25T12:51:57.294Z,8996.00
2019-04-25T12:52:58.116Z,8648.00
2019-04-25T12:53:58.649Z,8888.00
2019-04-25T12:54:58.186Z,9144.00
2019-04-25T12:55:58.978Z,9144.00
2019-04-25T12:56:58.227Z,9512.00
2019-04-25T12:57:58.373Z,9820.00
2019-04-25T12:58:58.655Z,10208.00
2019-04-25T12:59:58.672Z,10744.00
2019-04-25T13:00:59.999Z,10948.00
2019-04-25T13:02:00.166Z,10988.00
2019-04-25T13:02:59.155Z,12212.00
2019-04-25T13:03:59.307Z,11736.00
2019-04-25T13:04:59.424Z,14344.00
2019-04-25T13:05:59.656Z,12928.00
2019-04-25T13:07:00.701Z,12876.00
2019-04-25T13:08:01.057Z,12748.00
2019-04-25T13:09:01.309Z,15808.00
2019-04-25T13:10:00.353Z,15084.00
2019-04-25T13:11:07.874Z,14312.00
2019-04-25T13:12:04.302Z,13212.00
2019-04-25T13:13:00.814Z,11692.00
2019-04-25T13:14:00.974Z,10756.00
2019-04-25T13:15:01.146Z,10132.00
2019-04-25T13:16:01.288Z,7644.00
2019-04-25T13:17:01.447Z,7612.00
2019-04-25T13:18:01.593Z,7368.00
2019-04-25T13:19:14.482Z,8408.00
2019-04-25T13:20:04.458Z,9980.00
2019-04-25T13:21:03.488Z,10964.00
2019-04-25T13:22:02.866Z,11296.00
2019-04-25T13:23:03.533Z,10744.00
2019-04-25T13:24:03.698Z,10144.00
2019-04-25T13:25:03.451Z,9908.00
2019-04-25T13:26:05.301Z,9940.00
2019-04-25T13:27:04.255Z,10072.00
2019-04-25T13:28:06.608Z,10156.00
2019-04-25T13:29:05.655Z,10500.00
2019-04-25T13:30:05.527Z,10836.00
2019-04-25T13:31:11.453Z,11268.00
2019-04-25T13:32:06.311Z,11316.00
2019-04-25T13:33:04.452Z,10924.00
2019-04-25T13:34:05.797Z,10544.00
2019-04-25T13:35:04.871Z,10176.00
2019-04-25T13:36:04.880Z,9860.00
2019-04-25T13:37:06.294Z,9660.00
2019-04-25T13:38:05.188Z,9724.00
2019-04-25T13:39:05.596Z,9864.00
2019-04-25T13:40:06.478Z,10192.00
2019-04-25T13:41:05.612Z,10412.00
2019-04-25T13:42:06.770Z,10484.00
2019-04-25T13:43:06.212Z,10720.00
2019-04-25T13:44:07.087Z,11040.00
2019-04-25T13:45:06.240Z,11876.00
2019-04-25T13:46:06.402Z,11120.00
2019-04-25T13:47:06.534Z,10408.00
2019-04-25T13:48:06.672Z,10308.00
2019-04-25T13:49:07.656Z,10556.00
2019-04-25T13:50:07.022Z,10752.00
2019-04-25T13:51:07.194Z,9676.00
2019-04-25T13:52:07.317Z,9328.00
2019-04-25T13:53:07.561Z,9268.00
2019-04-25T13:54:07.690Z,9452.00
2019-04-25T13:55:07.856Z,9752.00
2019-04-25T13:56:08.016Z,9992.00
2019-04-25T13:57:08.141Z,10184.00
2019-04-25T13:58:08.314Z,10312.00
2019-04-25T13:59:08.470Z,10328.00
2019-04-25T14:00:08.627Z,10296.00
2019-04-25T14:01:13.283Z,10084.00
2019-04-25T14:02:11.002Z,9732.00
2019-04-25T14:03:09.242Z,9448.00
2019-04-25T14:04:10.407Z,9116.00
2019-04-25T14:05:09.519Z,8980.00
2019-04-25T14:06:09.633Z,8956.00
2019-04-25T14:07:09.790Z,9412.00
2019-04-25T14:08:10.663Z,9904.00
2019-04-25T14:09:10.156Z,10064.00
2019-04-25T14:10:11.157Z,9892.00
2019-04-25T14:11:11.166Z,9896.00
2019-04-25T14:12:10.682Z,10260.00
2019-04-25T14:13:13.400Z,10372.00
2019-04-25T14:14:11.090Z,9968.00
2019-04-25T14:15:13.821Z,10028.00
2019-04-25T14:16:13.768Z,8468.00
2019-04-25T14:17:13.843Z,8204.00
2019-04-25T14:18:13.751Z,9420.00
2019-04-25T14:19:13.042Z,9232.00
2019-04-25T14:20:12.248Z,9328.00
2019-04-25T14:21:13.313Z,6720.00
2019-04-25T14:22:13.662Z,6652.00
2019-04-25T14:23:13.460Z,6852.00
2019-04-25T14:24:20.313Z,6868.00
2019-04-25T14:25:15.216Z,6964.00
2019-04-25T14:26:14.447Z,7308.00
2019-04-25T14:27:13.714Z,7560.00
2019-04-25T14:28:14.807Z,8044.00
2019-04-25T14:29:14.676Z,8500.00
2019-04-25T14:30:14.039Z,8792.00
2019-04-25T14:31:30.544Z,7984.00
2019-04-25T14:32:17.174Z,7940.00
2019-04-25T14:33:14.518Z,7724.00
2019-04-25T14:34:14.662Z,7656.00
2019-04-25T14:35:14.797Z,7708.00
2019-04-25T14:36:15.002Z,7720.00
2019-04-25T14:37:16.256Z,7656.00
2019-04-25T14:38:15.477Z,7484.00
2019-04-25T14:39:15.648Z,7244.00
2019-04-25T14:40:15.778Z,7164.00
2019-04-25T14:41:16.685Z,7372.00
2019-04-25T14:42:16.676Z,7560.00
2019-04-25T14:43:16.408Z,7900.00
2019-04-25T14:44:16.540Z,7424.00
2019-04-25T14:45:16.677Z,7344.00
2019-04-25T14:46:16.778Z,6436.00
2019-04-25T14:47:17.014Z,6140.00
2019-04-25T14:48:17.243Z,5976.00
2019-04-25T14:49:17.465Z,5956.00
2019-04-25T14:50:17.639Z,6192.00
2019-04-25T14:51:17.756Z,7808.00
2019-04-25T14:52:17.877Z,7156.00
2019-04-25T14:53:18.102Z,6604.00
2019-04-25T14:54:18.347Z,6724.00
2019-04-25T14:55:18.501Z,6968.00
2019-04-25T14:56:18.613Z,7080.00
2019-04-25T14:57:18.843Z,7252.00
2019-04-25T14:58:18.966Z,7604.00
2019-04-25T14:59:22.035Z,7588.00
2019-04-25T15:00:21.671Z,7500.00
2019-04-25T15:01:19.448Z,7532.00
2019-04-25T15:02:19.575Z,7564.00
2019-04-25T15:03:19.684Z,7492.00
2019-04-25T15:04:19.806Z,7468.00
2019-04-25T15:05:21.111Z,7404.00
2019-04-25T15:06:20.225Z,7452.00
2019-04-25T15:07:20.334Z,7508.00
2019-04-25T15:08:20.457Z,7408.00
2019-04-25T15:09:20.616Z,8068.00
2019-04-25T15:10:22.952Z,6536.00
2019-04-25T15:11:20.898Z,6356.00
2019-04-25T15:12:21.037Z,6512.00
2019-04-25T15:13:21.180Z,6472.00
2019-04-25T15:14:21.317Z,6832.00
2019-04-25T15:15:22.307Z,7180.00
2019-04-25T15:16:22.373Z,7172.00
2019-04-25T15:17:23.571Z,7452.00
2019-04-25T15:18:22.413Z,6652.00
2019-04-25T15:19:23.101Z,7248.00
2019-04-25T15:20:23.752Z,6808.00
2019-04-25T15:21:22.577Z,7004.00
2019-04-25T15:22:23.180Z,7148.00
2019-04-25T15:23:23.194Z,7024.00
2019-04-25T15:24:23.910Z,6824.00
2019-04-25T15:25:25.100Z,6644.00
2019-04-25T15:26:24.605Z,6852.00
2019-04-25T15:27:24.961Z,6608.00
2019-04-25T15:28:24.523Z,6328.00
2019-04-25T15:29:25.516Z,6296.00
2019-04-25T15:30:25.046Z,6496.00
2019-04-25T15:31:25.557Z,6556.00
2019-04-25T15:32:25.116Z,6624.00
2019-04-25T15:33:25.191Z,6716.00
2019-04-25T15:34:25.972Z,6472.00
2019-04-25T15:35:25.841Z,6268.00
2019-04-25T15:36:25.389Z,6152.00
2019-04-25T15:37:26.451Z,6056.00
2019-04-25T15:38:26.992Z,5868.00
2019-04-25T15:39:26.182Z,5644.00
2019-04-25T15:40:26.366Z,5456.00
2019-04-25T15:41:26.279Z,5332.00
2019-04-25T15:42:27.353Z,5248.00
2019-04-25T15:43:27.546Z,5224.00
2019-04-25T15:44:26.916Z,5280.00
2019-04-25T15:45:27.085Z,5412.00
2019-04-25T15:46:27.387Z,5524.00
2019-04-25T15:47:28.185Z,5628.00
2019-04-25T15:48:27.537Z,5668.00
2019-04-25T15:49:28.563Z,5700.00
2019-04-25T15:50:27.845Z,5744.00
2019-04-25T15:51:27.961Z,5872.00
2019-04-25T15:52:29.007Z,6172.00
2019-04-25T15:53:28.469Z,6900.00
2019-04-25T15:54:28.522Z,7264.00
2019-04-25T15:55:29.694Z,5976.00
2019-04-25T15:56:28.950Z,5708.00
2019-04-25T15:57:29.816Z,5408.00
2019-04-25T15:58:29.805Z,5056.00
2019-04-25T15:59:29.373Z,4884.00
2019-04-25T16:00:30.683Z,4952.00
2019-04-25T16:01:30.339Z,5068.00
2019-04-25T16:02:30.255Z,5352.00
2019-04-25T16:03:30.809Z,5512.00
2019-04-25T16:04:30.429Z,5672.00
2019-04-25T16:05:30.487Z,6180.00
2019-04-25T16:06:30.677Z,5952.00
2019-04-25T16:07:31.112Z,5808.00
2019-04-25T16:08:31.039Z,5836.00
2019-04-25T16:09:31.917Z,5836.00
2019-04-25T16:10:31.900Z,5764.00
2019-04-25T16:11:31.537Z,5664.00
2019-04-25T16:12:31.716Z,5636.00
2019-04-25T16:13:32.274Z,5588.00
2019-04-25T16:14:32.090Z,5600.00
2019-04-25T16:15:33.157Z,5680.00
2019-04-25T16:16:33.245Z,5600.00
2019-04-25T16:17:32.735Z,5548.00
2019-04-25T16:18:33.169Z,5480.00
2019-04-25T16:19:33.077Z,5408.00
2019-04-25T16:20:33.578Z,5272.00
2019-04-25T16:21:33.484Z,5180.00
2019-04-25T16:22:34.409Z,5156.00
2019-04-25T16:23:34.348Z,5092.00
2019-04-25T16:24:34.386Z,5128.00
2019-04-25T16:25:34.157Z,5540.00
2019-04-25T16:26:35.667Z,5760.00
2019-04-25T16:27:35.203Z,5748.00
2019-04-25T16:28:34.706Z,6148.00
2019-04-25T16:29:35.662Z,6252.00
2019-04-25T16:30:35.038Z,6328.00
2019-04-25T16:31:36.685Z,6268.00
2019-04-25T16:32:35.388Z,6152.00
2019-04-25T16:33:35.730Z,5896.00
2019-04-25T16:34:35.766Z,5640.00
2019-04-25T16:35:35.951Z,5524.00
2019-04-25T16:36:36.078Z,5540.00
2019-04-25T16:37:37.198Z,5336.00
2019-04-25T16:38:36.424Z,5148.00
2019-04-25T16:39:36.579Z,5100.00
2019-04-25T16:40:36.710Z,4956.00
2019-04-25T16:41:37.465Z,4844.00
2019-04-25T16:42:37.169Z,4860.00
2019-04-25T16:43:37.309Z,4884.00
2019-04-25T16:44:37.439Z,4932.00
2019-04-25T16:45:37.753Z,4824.00
2019-04-25T16:46:37.817Z,4808.00
2019-04-25T16:47:37.935Z,4756.00
2019-04-25T16:48:39.140Z,4632.00
2019-04-25T16:49:39.066Z,4408.00
2019-04-25T16:50:38.404Z,4156.00
2019-04-25T16:51:38.598Z,3840.00
2019-04-25T16:52:38.739Z,3704.00
2019-04-25T16:53:40.073Z,3572.00
2019-04-25T16:54:39.223Z,3456.00
2019-04-25T16:55:39.245Z,3348.00
2019-04-25T16:56:39.412Z,3284.00
2019-04-25T16:57:39.672Z,3248.00
2019-04-25T16:58:39.701Z,3200.00
2019-04-25T16:59:39.858Z,3124.00
2019-04-25T17:00:40.825Z,2960.00
2019-04-25T17:01:40.178Z,2856.00
2019-04-25T17:02:42.200Z,2788.00
2019-04-25T17:04:02.473Z,2716.00
2019-04-25T17:04:41.682Z,2692.00
2019-04-25T17:05:41.726Z,2716.00
2019-04-25T17:06:41.097Z,2568.00
2019-04-25T17:07:42.716Z,2520.00
2019-04-25T17:08:41.305Z,2504.00
2019-04-25T17:09:42.828Z,2500.00
2019-04-25T17:10:41.719Z,2496.00
2019-04-25T17:11:41.850Z,2488.00
2019-04-25T17:12:41.964Z,2440.00
2019-04-25T17:13:42.727Z,2352.00
2019-04-25T17:14:42.395Z,2232.00
2019-04-25T17:15:42.554Z,2108.00
2019-04-25T17:16:42.675Z,2004.00
2019-04-25T17:17:43.715Z,1948.00
2019-04-25T17:18:42.940Z,1928.00
2019-04-25T17:19:43.081Z,1940.00
2019-04-25T17:20:43.753Z,1976.00
2019-04-25T17:21:43.486Z,2016.00
2019-04-25T17:22:43.665Z,2052.00
2019-04-25T17:23:44.720Z,2064.00
2019-04-25T17:24:43.952Z,2064.00
2019-04-25T17:25:44.105Z,2060.00
2019-04-25T17:26:44.264Z,2056.00
2019-04-25T17:27:44.418Z,2044.00
2019-04-25T17:28:44.572Z,2040.00
2019-04-25T17:29:44.713Z,2044.00
2019-04-25T17:30:45.882Z,2052.00
2019-04-25T17:31:45.272Z,2040.00
2019-04-25T17:32:52.890Z,2000.00
2019-04-25T17:33:47.349Z,1916.00
2019-04-25T17:34:45.579Z,1796.00
2019-04-25T17:35:45.731Z,1660.00
2019-04-25T17:36:45.891Z,1536.00
2019-04-25T17:37:46.076Z,1432.00
2019-04-25T17:38:46.219Z,1352.00
2019-04-25T17:39:46.382Z,1288.00
2019-04-25T17:40:46.561Z,1224.00
2019-04-25T17:41:46.726Z,1164.00
2019-04-25T17:42:46.891Z,1092.00
2019-04-25T17:43:47.056Z,1020.00
2019-04-25T17:44:47.731Z,940.00
2019-04-25T17:45:48.233Z,864.00
2019-04-25T17:46:47.467Z,800.00
2019-04-25T17:47:54.660Z,744.00
2019-04-25T17:48:49.840Z,704.00
2019-04-25T17:49:47.959Z,676.00
2019-04-25T17:50:48.229Z,668.00
2019-04-25T17:51:48.274Z,660.00
2019-04-25T17:52:48.430Z,648.00
2019-04-25T17:53:48.611Z,640.00
2019-04-25T17:54:48.821Z,624.00
2019-04-25T17:55:49.005Z,612.00
2019-04-25T17:56:49.166Z,600.00
2019-04-25T17:57:49.368Z,584.00
2019-04-25T17:58:49.515Z,576.00
2019-04-25T17:59:49.699Z,576.00
2019-04-25T18:00:49.884Z,576.00
2019-04-25T18:01:52.204Z,572.00
2019-04-25T18:02:58.701Z,592.00
2019-04-25T18:03:52.324Z,636.00
2019-04-25T18:04:50.521Z,672.00
2019-04-25T18:05:50.577Z,692.00
2019-04-25T18:06:50.753Z,712.00
2019-04-25T18:07:50.927Z,728.00
2019-04-25T18:08:51.243Z,724.00
2019-04-25T18:09:51.284Z,712.00
2019-04-25T18:10:51.746Z,688.00
2019-04-25T18:11:51.659Z,636.00
2019-04-25T18:12:51.812Z,580.00
2019-04-25T18:13:51.997Z,516.00
2019-04-25T18:14:52.164Z,468.00
2019-04-25T18:15:52.328Z,428.00
2019-04-25T18:16:53.224Z,388.00
2019-04-25T18:17:52.746Z,356.00
2019-04-25T18:18:52.908Z,320.00
2019-04-25T18:19:53.069Z,292.00
2019-04-25T18:20:53.246Z,264.00
2019-04-25T18:21:54.240Z,248.00
2019-04-25T18:22:53.635Z,232.00
2019-04-25T18:23:53.811Z,220.00
2019-04-25T18:24:54.197Z,212.00
2019-04-25T18:25:55.124Z,204.00
2019-04-25T18:26:54.257Z,196.00
2019-04-25T18:27:54.428Z,184.00
2019-04-25T18:28:54.636Z,180.00
2019-04-25T18:29:54.839Z,176.00
2019-04-25T18:30:55.037Z,168.00
2019-04-25T18:31:55.213Z,160.00
2019-04-25T18:32:55.408Z,152.00
2019-04-25T18:33:55.646Z,140.00
2019-04-25T18:34:55.839Z,128.00
2019-04-25T18:35:56.050Z,120.00
2019-04-25T18:36:56.279Z,108.00
2019-04-25T18:37:56.475Z,100.00
2019-04-25T18:38:57.243Z,88.00
2019-04-25T18:39:56.917Z,76.00
2019-04-25T18:40:57.165Z,68.00
2019-04-25T18:41:57.346Z,64.00
2019-04-25T18:42:58.233Z,52.00
2019-04-25T18:43:57.768Z,48.00
2019-04-25T18:44:58.750Z,44.00
2019-04-25T18:45:58.252Z,40.00
2019-04-25T18:46:59.236Z,36.00
2019-04-25T18:47:58.487Z,32.00
2019-04-25T18:48:58.624Z,28.00
2019-04-25T18:49:59.762Z,24.00
2019-04-25T18:50:59.754Z,20.00
2019-04-25T18:51:59.154Z,16.00
2019-04-25T18:52:59.327Z,16.00
2019-04-25T18:54:00.255Z,16.00
2019-04-25T18:54:59.639Z,12.00
2019-04-25T18:55:59.795Z,8.00
2019-04-25T18:56:59.958Z,8.00
2019-04-25T18:58:00.131Z,4.00
2019-04-25T18:59:00.286Z,8.00
2019-04-25T19:00:01.249Z,4.00
2019-04-25T19:01:00.662Z,4.00
2019-04-25T19:02:01.741Z,4.00
2019-04-25T19:03:00.996Z,4.00
2019-04-25T19:04:01.177Z,4.00
2019-04-25T19:05:01.367Z,4.00
2019-04-25T19:06:02.259Z,0.00
2019-04-25T19:07:02.274Z,4.00
2019-04-25T19:08:01.899Z,4.00
2019-04-25T19:09:02.745Z,4.00
2019-04-25T19:10:02.281Z,4.00
2019-04-25T19:11:02.528Z,0.00
2019-04-25T19:12:02.596Z,0.00
2019-04-25T19:13:12.580Z,0.00
2019-04-25T19:14:03.902Z,0.00
2019-04-25T19:15:04.029Z,0.00
2019-04-25T19:16:03.267Z,0.00
2019-04-25T19:17:03.444Z,0.00
2019-04-25T19:18:03.642Z,0.00
2019-04-25T19:19:03.787Z,0.00
2019-04-25T19:20:03.922Z,0.00
2019-04-25T19:21:04.742Z,0.00
2019-04-25T19:22:04.758Z,0.00
2019-04-25T19:23:05.250Z,0.00
2019-04-25T19:24:04.602Z,0.00
2019-04-25T19:25:04.774Z,0.00
2019-04-25T19:26:04.922Z,0.00
2019-04-25T19:27:05.743Z,0.00
2019-04-25T19:28:05.242Z,0.00
2019-04-25T19:29:05.386Z,0.00
2019-04-25T19:30:05.774Z,0.00
2019-04-25T19:31:05.760Z,0.00
2019-04-25T19:32:05.900Z,0.00
2019-04-25T19:33:07.634Z,0.00
2019-04-25T19:34:07.197Z,0.00
2019-04-25T19:35:06.455Z,0.00
2019-04-25T19:36:07.268Z,0.00
2019-04-25T19:37:06.772Z,0.00
2019-04-25T19:38:07.047Z,0.00
2019-04-25T19:39:07.188Z,0.00
2019-04-25T19:40:08.251Z,0.00
2019-04-25T19:41:08.261Z,0.00
2019-04-25T19:42:07.638Z,0.00
2019-04-25T19:43:08.765Z,0.00
2019-04-25T19:44:08.264Z,0.00
2019-04-25T19:45:08.152Z,0.00
2019-04-25T19:46:08.285Z,0.00
2019-04-25T19:47:09.254Z,0.00
2019-04-25T19:48:08.722Z,0.00
2019-04-25T19:49:09.755Z,0.00
2019-04-25T19:50:09.005Z,0.00
2019-04-25T19:51:09.144Z,0.00
2019-04-25T19:52:09.259Z,0.00
2019-04-25T19:53:09.429Z,0.00
2019-04-25T19:54:09.583Z,0.00
2019-04-25T19:55:09.736Z,0.00
2019-04-25T19:56:09.918Z,0.00
2019-04-25T19:57:10.041Z,0.00
2019-04-25T19:58:10.185Z,0.00
2019-04-25T19:59:10.312Z,0.00
2019-04-25T20:00:10.465Z,0.00
2019-04-25T20:01:10.585Z,0.00
2019-04-25T20:02:10.761Z,0.00
2019-04-25T20:03:11.769Z,0.00
2019-04-25T20:04:11.037Z,0.00
2019-04-25T20:05:11.208Z,0.00
2019-04-25T20:06:11.379Z,0.00
2019-04-25T20:07:11.562Z,0.00
2019-04-25T20:08:12.253Z,0.00
2019-04-25T20:09:11.898Z,0.00
2019-04-25T20:10:12.062Z,0.00
2019-04-25T20:11:12.199Z,0.00
2019-04-25T20:12:12.398Z,0.00
2019-04-25T20:13:13.260Z,0.00
2019-04-25T20:14:12.775Z,0.00
2019-04-25T20:15:12.931Z,0.00
2019-04-25T20:16:13.771Z,0.00
2019-04-25T20:17:13.319Z,0.00
2019-04-25T20:18:13.502Z,0.00
2019-04-25T20:19:13.672Z,0.00
2019-04-25T20:20:13.836Z,0.00
2019-04-25T20:21:14.015Z,0.00
2019-04-25T20:22:14.213Z,0.00
2019-04-25T20:23:14.465Z,0.00
2019-04-25T20:24:15.263Z,0.00
2019-04-25T20:25:14.778Z,0.00
2019-04-25T20:26:14.973Z,0.00
2019-04-25T20:27:15.768Z,0.00
2019-04-25T20:28:15.339Z,0.00
2019-04-25T20:29:16.274Z,0.00
2019-04-25T20:30:15.700Z,0.00
2019-04-25T20:31:15.866Z,0.00
2019-04-25T20:32:16.093Z,0.00
2019-04-25T20:33:16.331Z,0.00
2019-04-25T20:34:16.533Z,0.00
2019-04-25T20:35:16.740Z,0.00
2019-04-25T20:36:17.834Z,0.00
2019-04-25T20:37:18.074Z,0.00
2019-04-25T20:38:17.272Z,0.00
2019-04-25T20:39:18.257Z,0.00
2019-04-25T20:40:17.657Z,0.00
2019-04-25T20:41:17.915Z,0.00
2019-04-25T20:42:18.048Z,0.00
2019-04-25T20:43:18.224Z,0.00
2019-04-25T20:44:19.260Z,0.00
2019-04-25T20:45:18.578Z,0.00
2019-04-25T20:46:18.745Z,0.00
2019-04-25T20:47:18.905Z,0.00
2019-04-25T20:48:19.136Z,0.00
2019-04-25T20:49:20.265Z,0.00
2019-04-25T20:50:19.532Z,0.00
2019-04-25T20:51:19.711Z,0.00
2019-04-25T20:52:19.891Z,0.00
2019-04-25T20:53:20.054Z,0.00
2019-04-25T20:54:20.239Z,0.00
2019-04-25T20:55:20.408Z,0.00
2019-04-25T20:56:20.581Z,0.00
2019-04-25T20:57:20.742Z,0.00
2019-04-25T20:58:20.903Z,0.00
2019-04-25T20:59:21.094Z,0.00
2019-04-25T21:00:21.249Z,0.00
2019-04-25T21:01:21.421Z,0.00
2019-04-25T21:02:21.599Z,0.00
2019-04-25T21:03:21.775Z,0.00
2019-04-25T21:04:21.973Z,0.00
2019-04-25T21:05:22.279Z,0.00
2019-04-25T21:06:23.287Z,0.00
2019-04-25T21:07:22.528Z,0.00
2019-04-25T21:08:24.473Z,0.00
2019-04-25T21:09:23.899Z,0.00
2019-04-25T21:10:23.278Z,0.00
2019-04-25T21:11:23.153Z,0.00
2019-04-25T21:12:23.299Z,0.00
2019-04-25T21:13:24.267Z,0.00
2019-04-25T21:14:23.628Z,0.00
2019-04-25T21:15:23.765Z,0.00
2019-04-25T21:16:24.785Z,0.00
2019-04-25T21:17:24.180Z,0.00
2019-04-25T21:18:24.305Z,0.00
2019-04-25T21:19:25.259Z,0.00
2019-04-25T21:20:24.812Z,0.00
2019-04-25T21:21:24.812Z,0.00
2019-04-25T21:22:25.769Z,0.00
2019-04-25T21:23:25.115Z,0.00
2019-04-25T21:24:25.286Z,0.00
2019-04-25T21:25:25.447Z,0.00
2019-04-25T21:26:25.575Z,0.00
2019-04-25T21:27:25.711Z,0.00
2019-04-25T21:28:26.774Z,0.00
2019-04-25T21:29:26.141Z,0.00
2019-04-25T21:30:26.290Z,0.00
2019-04-25T21:31:26.499Z,0.00
2019-04-25T21:32:26.676Z,0.00
2019-04-25T21:33:26.847Z,0.00
2019-04-25T21:34:29.634Z,0.00
2019-04-25T21:35:27.316Z,0.00
2019-04-25T21:36:27.482Z,0.00
2019-04-25T21:37:27.634Z,0.00
2019-04-25T21:38:27.794Z,0.00
2019-04-25T21:39:28.794Z,0.00
2019-04-25T21:40:28.210Z,0.00
2019-04-25T21:41:28.444Z,0.00
2019-04-25T21:42:28.526Z,0.00
2019-04-25T21:43:28.725Z,0.00
2019-04-25T21:44:28.924Z,0.00
2019-04-25T21:45:29.092Z,0.00
2019-04-25T21:46:29.297Z,0.00
2019-04-25T21:47:29.342Z,0.00
2019-04-25T21:48:29.513Z,0.00
2019-04-25T21:49:29.695Z,0.00
2019-04-25T21:50:29.863Z,0.00
2019-04-25T21:51:30.067Z,0.00
2019-04-25T21:52:30.214Z,0.00
2019-04-25T21:53:31.276Z,0.00
2019-04-25T21:54:30.512Z,0.00
2019-04-25T21:55:30.638Z,0.00
2019-04-25T21:56:30.784Z,0.00
2019-04-25T21:57:30.925Z,0.00
2019-04-25T21:58:31.110Z,0.00
2019-04-25T21:59:31.298Z,0.00
2019-04-25T22:00:31.495Z,0.00
2019-04-25T22:01:31.660Z,0.00
2019-04-25T22:02:31.832Z,0.00
2019-04-25T22:03:32.066Z,0.00
2019-04-25T22:04:38.704Z,0.00
2019-04-25T22:05:34.384Z,0.00
2019-04-25T22:06:32.557Z,0.00
2019-04-25T22:07:32.748Z,0.00
2019-04-25T22:08:32.987Z,0.00
2019-04-25T22:09:33.160Z,0.00
2019-04-25T22:10:34.315Z,0.00
2019-04-25T22:11:33.484Z,0.00
2019-04-25T22:12:33.657Z,0.00
2019-04-25T22:13:33.866Z,0.00
2019-04-25T22:14:34.048Z,0.00
2019-04-25T22:15:34.246Z,0.00
2019-04-25T22:16:34.388Z,0.00
2019-04-25T22:17:34.604Z,0.00
2019-04-25T22:18:34.784Z,0.00
2019-04-25T22:19:34.990Z,0.00
2019-04-25T22:20:35.144Z,0.00